Information Last Ob Photographs Meteogram Network Table Neighbors Monthly Summaries Observation History Wind Roses Custom Wind Roses Data Calendar Download

15 February 2019 Observation History, [DSM] DES MOINES, timezone: America/Chicago

Select Date:
Show MetarsPrevious Day
Time Wind
(mph)
Vis.
(mi.)
Sky Cond.
(100s ft)
Present Wx Temperature (ºF) Relative
Humidity
Pressure Precipitation (in.)
Air Dwpt Feels Like 6 hour altimeter
(in.)
sea level
(mb)
1 hr 3 hr 6 hr
Max.Min.
9:54 PMN 810 OVC180
126 77% 30.140
KDSM 160354Z 35007KT 10SM OVC180 M11/M14 A3014 RMK AO2 SLP228 T11111144
9:50 PMN 910 % 30.14
KDSM 160350Z AUTO 35008KT 10SM M11/M14 A3013 RMK T11101140 MADISHF
9:45 PMN 810 CLR
% 30.15
KDSM 160345Z AUTO 35007KT 10SM CLR M11/M14 A3014 RMK T11101140 MADISHF
9:40 PMN 910 CLR
% 30.15
KDSM 160340Z AUTO 35008KT 10SM CLR M11/M14 A3014 RMK T11101140 MADISHF
9:35 PMN 910 CLR
% 30.14
KDSM 160335Z AUTO 36008KT 10SM CLR M11/M14 A3013 RMK T11101140 MADISHF
9:30 PMN 1010 CLR
% 30.14
KDSM 160330Z AUTO 36009KT 10SM CLR M11/M14 A3013 RMK T11101140 MADISHF
9:25 PMN 910 CLR
% 30.14
KDSM 160325Z AUTO 36008KT 10SM CLR M11/M14 A3013 RMK T11101140 MADISHF
9:20 PMN 1010 CLR
% 30.14
KDSM 160320Z AUTO 36009KT 10SM CLR M11/M14 A3013 RMK T11101140 MADISHF
9:15 PMN 910 CLR
% 30.14
KDSM 160315Z AUTO 36008KT 10SM CLR M11/M14 A3013 RMK T11101140 MADISHF
9:10 PMN 910 CLR
% 30.14
KDSM 160310Z AUTO 35008KT 10SM CLR M11/M14 A3013 RMK T11101140 MADISHF
9:05 PMN 910 CLR
% 30.14
KDSM 160305Z AUTO 35008KT 10SM CLR M11/M14 A3013 RMK T11101140 MADISHF
8:54 PMN 710 FEW120
OVC200
1261 77% 30.140
KDSM 160254Z 35006KT 10SM FEW120 OVC200 M11/M14 A3014 RMK AO2 SLP227 T11111144 50009
8:50 PMN 710 FEW120
% 30.14
KDSM 160250Z AUTO 35006KT 10SM FEW120 M11/M14 A3013 RMK T11101140 MADISHF
8:45 PMN 710 % 30.14
KDSM 160245Z AUTO 35006KT 10SM M11/M14 A3013 RMK T11101140 MADISHF
8:40 PMNNW 910 CLR
% 30.14
KDSM 160240Z AUTO 34008KT 10SM CLR M11/M14 A3013 RMK T11101140 MADISHF
8:35 PMN 910 CLR
% 30.14
KDSM 160235Z AUTO 35008KT 10SM CLR M11/M14 A3013 RMK T11101140 MADISHF
8:30 PMNNW 910 CLR
% 30.14
KDSM 160230Z AUTO 34008KT 10SM CLR M11/M14 A3013 RMK T11101140 MADISHF
8:25 PMNNW 810 CLR
% 30.14
KDSM 160225Z AUTO 34007KT 10SM CLR M11/M14 A3013 RMK T11101140 MADISHF
8:20 PMNNW 810 CLR
% 30.14
KDSM 160220Z AUTO 34007KT 10SM CLR M11/M14 A3013 RMK T11101140 MADISHF
8:15 PMNNW 910 CLR
% 30.14
KDSM 160215Z AUTO 34008KT 10SM CLR M11/M14 A3013 RMK T11101140 MADISHF
8:10 PMNNW 810 CLR
% 30.14
KDSM 160210Z AUTO 34007KT 10SM CLR M11/M14 A3013 RMK T11101140 MADISHF
8:05 PMNNW 910 CLR
% 30.14
KDSM 160205Z AUTO 34008KT 10SM CLR M11/M14 A3013 RMK T11101140 MADISHF
8:00 PMNNW 910 CLR
% 30.14
KDSM 160200Z AUTO 33008KT 10SM CLR M11/M14 A3013 RMK T11101140 MADISHF
7:55 PMNNW 910 CLR
% 30.14
KDSM 160155Z AUTO 33008KT 10SM CLR M11/M14 A3013 RMK T11101140 MADISHF
7:54 PMNNW 810 FEW110
OVC200
127 80% 30.140
KDSM 160154Z 33007KT 10SM FEW110 OVC200 M11/M14 A3014 RMK AO2 SLP229 BINOVC OHD T11111139
7:50 PMNW 810 FEW110
% 30.14
KDSM 160150Z AUTO 32007KT 10SM FEW110 M11/M14 A3013 RMK T11101140 BINOVC OHD MADISHF
7:45 PMNW 810 FEW110
% 30.14
KDSM 160145Z AUTO 32007KT 10SM FEW110 M11/M14 A3013 RMK T11101140 MADISHF
7:40 PMNNW 710 CLR
% 30.14
KDSM 160140Z AUTO 33006KT 10SM CLR M11/M14 A3013 RMK T11101140 MADISHF
7:35 PMNNW 710 CLR
% 30.14
KDSM 160135Z AUTO 33006KT 10SM CLR M11/M14 A3013 RMK T11101140 MADISHF
7:30 PMNNW 910 CLR
% 30.14
KDSM 160130Z AUTO 33008KT 10SM CLR M11/M14 A3013 RMK T11101140 MADISHF
7:25 PMNNW 810 CLR
% 30.14
KDSM 160125Z AUTO 33007KT 10SM CLR M11/M14 A3013 RMK T11101140 MADISHF
7:20 PMNW 910 CLR
% 30.13
KDSM 160120Z AUTO 32008KT 10SM CLR M11/M14 A3012 RMK T11101140 MADISHF
7:15 PMNW 810 CLR
% 30.13
KDSM 160115Z AUTO 32007KT 10SM CLR M11/M14 A3012 RMK T11101140 MADISHF
7:10 PMNW 710 CLR
% 30.13
KDSM 160110Z AUTO 32006KT 10SM CLR M11/M14 A3012 RMK T11101140 MADISHF
7:05 PMNW 910 FEW120
% 30.13
KDSM 160105Z AUTO 32008KT 10SM FEW120 M11/M14 A3012 RMK T11101140 MADISHF
7:00 PMNW 810 SCT120
% 30.13
KDSM 160100Z AUTO 32007KT 10SM SCT120 M11/M14 A3012 RMK T11101140 MADISHF
6:55 PMNW 1010 SCT110
% 30.13
KDSM 160055Z AUTO 32009KT 10SM SCT110 M11/M14 A3012 RMK T11101140 MADISHF
6:54 PMNW 1010 SCT110
OVC200
136 74% 30.130
KDSM 160054Z 32009KT 10SM SCT110 OVC200 M11/M14 A3013 RMK AO2 SLP225 T11061144
6:50 PMNW 910 BKN110
% 30.13
KDSM 160050Z AUTO 32008KT 10SM BKN110 M11/M14 A3012 RMK T11101140 MADISHF
6:45 PMNNW 1010 BKN110
% 30.13
KDSM 160045Z AUTO 33009KT 10SM BKN110 M11/M14 A3012 RMK T11101140 MADISHF
6:40 PMNW 1010 OVC110
% 30.13
KDSM 160040Z AUTO 32009KT 10SM OVC110 M11/M14 A3012 RMK T11101140 MADISHF
6:35 PMNNW 910 OVC110
% 30.12
KDSM 160035Z AUTO 33008KT 10SM OVC110 M11/M14 A3012 RMK T11101140 MADISHF
6:30 PMNW 910 OVC110
% 30.12
KDSM 160030Z AUTO 31008KT 10SM OVC110 M11/M14 A3012 RMK T11101140 MADISHF
6:25 PMNW 1210 OVC110
% 30.12
KDSM 160025Z AUTO 32010KT 10SM OVC110 M11/M14 A3012 RMK T11101140 MADISHF
6:20 PMNW 1310 OVC100
% 30.12
KDSM 160020Z AUTO 32011KT 10SM OVC100 M11/M14 A3012 RMK T11101140 MADISHF
6:15 PMNW 1010 OVC100
% 30.12
KDSM 160015Z AUTO 32009KT 10SM OVC100 M11/M14 A3012 RMK T11101140 MADISHF
6:10 PMNW 1210 OVC100
% 30.11
KDSM 160010Z AUTO 32010KT 10SM OVC100 M11/M14 A3011 RMK T11101140 MADISHF
6:05 PMNW 1310 OVC100
% 30.11
KDSM 160005Z AUTO 32011KT 10SM OVC100 M11/M14 A3011 RMK T11101140 MADISHF
6:00 PMNW 1410 OVC100
% 30.11
KDSM 160000Z AUTO 32012KT 10SM OVC100 M11/M15 A3011 RMK T11101150 MADISHF
5:55 PMNW 1010 OVC100
% 30.11
KDSM 152355Z AUTO 32009KT 10SM OVC100 M11/M15 A3011 RMK T11101150 MADISHF
5:54 PMNW 1210 OVC100
125-2 12 5 73% 30.110
KDSM 152354Z 32010KT 10SM OVC100 M11/M15 A3011 RMK AO2 SLP218 4/002 T11111150 11111 21150 52007
5:50 PMNW 1210 OVC100
% 30.11
KDSM 152350Z AUTO 32010KT 10SM OVC100 M11/M15 A3011 RMK T11101150 4/002 MADISHF
5:45 PMNW 1210 OVC100
% 30.12
KDSM 152345Z AUTO 32010KT 10SM OVC100 M11/M15 A3012 RMK T11101150 4/002 MADISHF
5:40 PMNW 1210 OVC100
% 30.11
KDSM 152340Z AUTO 32010KT 10SM OVC100 M11/M15 A3011 RMK T11101150 4/002 MADISHF
5:35 PMNW 1310 OVC100
% 30.11
KDSM 152335Z AUTO 32011KT 10SM OVC100 M11/M15 A3011 RMK T11101150 MADISHF
5:30 PMNW 1210 OVC100
% 30.11
KDSM 152330Z AUTO 31010KT 10SM OVC100 M11/M15 A3011 RMK T11101150 MADISHF
5:25 PMNW 910 OVC100
% 30.11
KDSM 152325Z AUTO 32008KT 10SM OVC100 M11/M15 A3011 RMK T11101150 MADISHF
5:20 PMNW 1010 OVC100
% 30.11
KDSM 152320Z AUTO 32009KT 10SM OVC100 M11/M15 A3011 RMK T11101150 MADISHF
5:15 PMNW 1210 OVC100
% 30.11
KDSM 152315Z AUTO 32010KT 10SM OVC100 M11/M15 A3011 RMK T11101150 MADISHF
5:10 PMNW 1410 OVC100
% 30.11
KDSM 152310Z AUTO 32012KT 10SM OVC100 M12/M15 A3011 RMK T11201150 MADISHF
5:05 PMNW 1010 OVC100
% 30.11
KDSM 152305Z AUTO 32009KT 10SM OVC100 M12/M15 A3011 RMK T11201150 MADISHF
5:00 PMNW 1310 OVC100
% 30.1
KDSM 152300Z AUTO 31011KT 10SM OVC100 M12/M16 A3010 RMK T11201160 MADISHF
4:55 PMNNW 1210 OVC100
% 30.1
KDSM 152255Z AUTO 33010KT 10SM OVC100 M12/M15 A3010 RMK T11201150 MADISHF
4:54 PMNNW 1010 OVC100
115-3 77% 30.10
KDSM 152254Z 33009KT 10SM OVC100 M12/M15 A3010 RMK AO2 SLP214 T11171150
4:50 PMNW 1210 OVC100
% 30.1
KDSM 152250Z AUTO 32010KT 10SM OVC100 M12/M15 A3010 RMK T11201150 MADISHF
4:45 PMNW 910 OVC100
% 30.1
KDSM 152245Z AUTO 32008KT 10SM OVC100 M12/M15 A3010 RMK T11201150 MADISHF
4:40 PMNNW 1010 OVC100
% 30.1
KDSM 152240Z AUTO 33009KT 10SM OVC100 M12/M16 A3010 RMK T11201160 MADISHF
4:35 PMNNW 1210 OVC095
% 30.1
KDSM 152235Z AUTO 33010KT 10SM OVC095 M12/M16 A3010 RMK T11201160 MADISHF
4:30 PMNW 1310 OVC095
% 30.1
KDSM 152230Z AUTO 32011KT 10SM OVC095 M12/M16 A3010 RMK T11201160 MADISHF
4:25 PMNW 1410 OVC095
% 30.1
KDSM 152225Z AUTO 31012KT 10SM OVC095 M12/M16 A3010 RMK T11201160 MADISHF
4:15 PMNW 1310 OVC095
% 30.1
KDSM 152215Z AUTO 31011KT 10SM OVC095 M12/M16 A3010 RMK T11201160 MADISHF
4:10 PMNW 12G 1710 OVC100
% 30.1
KDSM 152210Z AUTO 31010G15KT 10SM OVC100 M12/M16 A3010 RMK T11201160 MADISHF
4:05 PMNW 1310 OVC100
% 30.1
KDSM 152205Z AUTO 31011KT 10SM OVC100 M12/M16 A3010 RMK T11201160 MADISHF
4:00 PMNW 1010 OVC100
% 30.1
KDSM 152200Z AUTO 32009KT 10SM OVC100 M12/M16 A3010 RMK T11201160 MADISHF
3:55 PMNW 1310 OVC100
% 30.1
KDSM 152155Z AUTO 32011KT 10SM OVC100 M12/M16 A3010 RMK T11201160 MADISHF
3:54 PMNW 1310 BKN100
OVC200
103-5 73% 30.10
KDSM 152154Z 32011KT 10SM BKN100 OVC200 M12/M16 A3010 RMK AO2 SLP215 T11221161
3:50 PMNW 1310 BKN100
% 30.1
KDSM 152150Z AUTO 31011KT 10SM BKN100 M12/M16 A3010 RMK T11201160 MADISHF
3:45 PMNW 1410 OVC100
% 30.1
KDSM 152145Z AUTO 32012KT 10SM OVC100 M12/M16 A3010 RMK T11201160 MADISHF
3:40 PMNW 1210 OVC100
% 30.1
KDSM 152140Z AUTO 32010KT 10SM OVC100 M12/M16 A3010 RMK T11201160 MADISHF
3:35 PMNW 1010 OVC100
% 30.1
KDSM 152135Z AUTO 32009KT 10SM OVC100 M12/M16 A3010 RMK T11201160 MADISHF
3:30 PMNW 1310 OVC100
% 30.09
KDSM 152130Z AUTO 31011KT 10SM OVC100 M12/M16 A3009 RMK T11201160 MADISHF
3:25 PMWNW 1310 OVC100
% 30.09
KDSM 152125Z AUTO 30011KT 10SM OVC100 M12/M16 A3009 RMK T11201160 MADISHF
3:20 PMWNW 1310 OVC100
% 30.09
KDSM 152120Z AUTO 30011KT 10SM OVC100 M12/M16 A3009 RMK T11201160 MADISHF
3:15 PMNW 1310 OVC100
% 30.09
KDSM 152115Z AUTO 31011KT 10SM OVC100 M12/M17 A3009 RMK T11201170 MADISHF
3:10 PMWNW 1210 BKN100
% 30.1
KDSM 152110Z AUTO 30010KT 10SM BKN100 M12/M17 A3010 RMK T11201170 MADISHF
3:05 PMNW 1010 BKN110
% 30.09
KDSM 152105Z AUTO 31009KT 10SM BKN110 M12/M17 A3009 RMK T11201170 MADISHF
3:00 PMNW 1210 SCT110
% 30.09
KDSM 152100Z AUTO 31010KT 10SM SCT110 M12/M17 A3009 RMK T11201170 MADISHF
2:55 PMWNW 1210 SCT110
% 30.09
KDSM 152055Z AUTO 30010KT 10SM SCT110 M12/M17 A3009 RMK T11201170 MADISHF
2:54 PMWNW 1210 FEW110
SCT180
BKN200
OVC250
102-5 69% 30.090
KDSM 152054Z 30010KT 10SM FEW110 SCT180 BKN200 OVC250 M12/M17 A3009 RMK AO2 SLP210 T11221167 56014
2:50 PMNW 910 FEW110
% 30.09
KDSM 152050Z AUTO 31008KT 10SM FEW110 M13/M17 A3009 RMK T11301170 MADISHF
2:45 PMNW 1010 FEW110
% 30.09
KDSM 152045Z AUTO 32009KT 10SM FEW110 M13/M17 A3009 RMK T11301170 MADISHF
2:40 PMNW 1210 CLR
% 30.08
KDSM 152040Z AUTO 32010KT 10SM CLR M13/M17 A3007 RMK T11301170 MADISHF
2:35 PMNW 910 CLR
% 30.08
KDSM 152035Z AUTO 32008KT 10SM CLR M13/M17 A3007 RMK T11301170 MADISHF
2:30 PMNW 1010 FEW110
% 30.08
KDSM 152030Z AUTO 32009KT 10SM FEW110 M13/M17 A3007 RMK T11301170 MADISHF
2:25 PMNNW 1010 FEW110
% 30.08
KDSM 152025Z AUTO 33009KT 10SM FEW110 M13/M17 A3007 RMK T11301170 MADISHF
2:20 PMNW 1210 CLR
% 30.08
KDSM 152020Z AUTO 32010KT 10SM CLR M13/M17 A3007 RMK T11301170 MADISHF
2:15 PMNW 1010 CLR
% 30.09
KDSM 152015Z AUTO 32009KT 10SM CLR M13/M17 A3009 RMK T11301170 MADISHF
2:10 PMNW 1010 CLR
% 30.09
KDSM 152010Z AUTO 31009KT 10SM CLR M13/M17 A3009 RMK T11301170 MADISHF
2:05 PMNNW 1010 CLR
% 30.09
KDSM 152005Z AUTO 33009KT 10SM CLR M13/M17 A3009 RMK T11301170 MADISHF
2:00 PMNW 1010 CLR
% 30.09
KDSM 152000Z AUTO 31009KT 10SM CLR M13/M17 A3009 RMK T11301170 MADISHF
1:55 PMNW 910 CLR
% 30.09
KDSM 151955Z AUTO 32008KT 10SM CLR M13/M17 A3009 RMK T11301170 MADISHF
1:54 PMNW 1210 SCT110
OVC200
81-7 72% 30.090
KDSM 151954Z 31010KT 10SM SCT110 OVC200 M13/M17 A3009 RMK AO2 SLP213 T11331172
1:50 PMNW 1310 CLR
% 30.1
KDSM 151950Z AUTO 31011KT 10SM CLR M13/M18 A3010 RMK T11301180 MADISHF
1:45 PMNW 1010 CLR
% 30.1
KDSM 151945Z AUTO 32009KT 10SM CLR M13/M17 A3010 RMK T11301170 MADISHF
1:40 PMNW 910 CLR
% 30.1
KDSM 151940Z AUTO 31008KT 10SM CLR M13/M18 A3010 RMK T11301180 MADISHF
1:35 PMNW 910 CLR
% 30.1
KDSM 151935Z AUTO 32008KT 10SM CLR M13/M18 A3010 RMK T11301180 MADISHF
1:30 PMNW 1010 CLR
% 30.1
KDSM 151930Z AUTO 31009KT 10SM CLR M13/M18 A3010 RMK T11301180 MADISHF
1:25 PMNW 1210 CLR
% 30.11
KDSM 151925Z AUTO 31010KT 10SM CLR M13/M18 A3011 RMK T11301180 MADISHF
1:15 PMNW 1210 CLR
% 30.11
KDSM 151915Z AUTO 31010KT 10SM CLR M14/M18 A3011 RMK T11401180 MADISHF
1:10 PMWNW 810 CLR
% 30.11
KDSM 151910Z AUTO 30007KT 10SM CLR M14/M18 A3011 RMK T11401180 MADISHF
1:05 PMWNW 910 CLR
% 30.11
KDSM 151905Z AUTO 30008KT 10SM CLR M14/M18 A3011 RMK T11401180 MADISHF
1:00 PMNW 1010 CLR
% 30.12
KDSM 151900Z AUTO 31009KT 10SM CLR M14/M18 A3012 RMK T11401180 MADISHF
12:55 PMWNW 910 CLR
% 30.11
KDSM 151855Z AUTO 30008KT 10SM CLR M14/M18 A3011 RMK T11401180 MADISHF
12:54 PMWNW 910 SCT110
BKN200
OVC250
7-1-7 69% 30.120
KDSM 151854Z 29008KT 10SM SCT110 BKN200 OVC250 M14/M18 A3012 RMK AO2 SLP220 T11391183
12:50 PMWNW 1010 SCT110
% 30.12
KDSM 151850Z AUTO 29009KT 10SM SCT110 M14/M18 A3012 RMK T11401180 MADISHF
12:45 PMNW 910 FEW110
% 30.11
KDSM 151845Z AUTO 31008KT 10SM FEW110 M14/M18 A3011 RMK T11401180 MADISHF
12:40 PMNW 910 FEW100
% 30.11
KDSM 151840Z AUTO 31008KT 10SM FEW100 M14/M18 A3011 RMK T11401180 MADISHF
12:35 PMNNW 810 FEW110
% 30.12
KDSM 151835Z AUTO 33007KT 10SM FEW110 M14/M19 A3012 RMK T11401190 MADISHF
12:25 PMWNW 910 FEW110
% 30.12
KDSM 151825Z AUTO 30008KT 10SM FEW110 M14/M19 A3012 RMK T11401190 MADISHF
12:20 PMWNW 1010 FEW110
% 30.13
KDSM 151820Z AUTO 30009KT 10SM FEW110 M14/M19 A3012 RMK T11401190 MADISHF
12:15 PMNW 1010 FEW110
% 30.13
KDSM 151815Z AUTO 31009KT 10SM FEW110 M14/M19 A3012 RMK T11401190 MADISHF
12:05 PMNNW 1010 SCT110
% 30.14
KDSM 151805Z AUTO 33009KT 10SM SCT110 M15/M19 A3013 RMK T11501190 MADISHF
12:00 PMNW 1010 SCT110
% 30.14
KDSM 151800Z AUTO 31009KT 10SM SCT110 M15/M19 A3013 RMK T11501190 MADISHF
11:55 AMNNW 1010 SCT110
% 30.13
KDSM 151755Z AUTO 34009KT 10SM SCT110 M15/M19 A3012 RMK T11501190 MADISHF
11:54 AMNNW 910 SCT110
BKN200
OVC250
5-3-9 5 2 69% 30.130
KDSM 151754Z 34008KT 10SM SCT110 BKN200 OVC250 M15/M19 A3013 RMK AO2 SLP226 4/002 933003 T11501194 11150 21167 50008
11:50 AMNNW 910 BKN110
% 30.13
KDSM 151750Z AUTO 33008KT 10SM BKN110 M15/M19 A3012 RMK T11501190 MADISHF
11:45 AMNNW 1010 BKN110
% 30.14
KDSM 151745Z AUTO 33009KT 10SM BKN110 M15/M19 A3013 RMK T11501190 MADISHF
11:40 AMNW 1010 SCT110
% 30.14
KDSM 151740Z AUTO 32009KT 10SM SCT110 M15/M19 A3013 RMK T11501190 MADISHF
11:35 AMNNW 1010 SCT110
% 30.14
KDSM 151735Z AUTO 33009KT 10SM SCT110 M15/M19 A3013 RMK T11501190 MADISHF
11:30 AMNW 910 SCT110
% 30.14
KDSM 151730Z AUTO 31008KT 10SM SCT110 M15/M19 A3013 RMK T11501190 MADISHF
11:25 AMNW 1010 SCT110
% 30.14
KDSM 151725Z AUTO 32009KT 10SM SCT110 M16/M19 A3013 RMK T11601190 MADISHF
11:20 AMNNW 810 SCT110
% 30.14
KDSM 151720Z AUTO 33007KT 10SM SCT110 M16/M19 A3013 RMK T11601190 MADISHF
11:15 AMNNW 810 BKN110
% 30.14
KDSM 151715Z AUTO 33007KT 10SM BKN110 M16/M19 A3013 RMK T11601190 MADISHF
11:10 AMNNW 910 BKN110
% 30.14
KDSM 151710Z AUTO 33008KT 10SM BKN110 M16/M19 A3013 RMK T11601190 MADISHF
11:05 AMWNW 1010 BKN110
% 30.14
KDSM 151705Z AUTO 30009KT 10SM BKN110 M16/M19 A3013 RMK T11601190 MADISHF
11:00 AMWNW 810 BKN110
% 30.14
KDSM 151700Z AUTO 30007KT 10SM BKN110 M16/M20 A3013 RMK T11601200 MADISHF
10:55 AMNW 1010 BKN110
% 30.14
KDSM 151655Z AUTO 31009KT 10SM BKN110 M16/M20 A3013 RMK T11601200 MADISHF
10:54 AMNW 1010 BKN110
OVC250
3-4-12 72% 30.140
KDSM 151654Z 31009KT 10SM BKN110 OVC250 M16/M20 A3014 RMK AO2 SLP228 T11611200
10:50 AMNW 810 BKN110
% 30.14
KDSM 151650Z AUTO 31007KT 10SM BKN110 M16/M20 A3013 RMK T11601200 MADISHF
10:45 AMWNW 810 BKN100
% 30.13
KDSM 151645Z AUTO 30007KT 10SM BKN100 M16/M20 A3012 RMK T11601200 MADISHF
10:40 AMNW 810 BKN100
% 30.13
KDSM 151640Z AUTO 31007KT 10SM BKN100 M16/M20 A3012 RMK T11601200 MADISHF
10:35 AMNW 1010 BKN100
% 30.12
KDSM 151635Z AUTO 32009KT 10SM BKN100 M16/M20 A3012 RMK T11601200 MADISHF
10:30 AMNW 910 BKN100
% 30.12
KDSM 151630Z AUTO 31008KT 10SM BKN100 M16/M20 A3012 RMK T11601200 MADISHF
10:25 AMWNW 810 BKN100
% 30.13
KDSM 151625Z AUTO 30007KT 10SM BKN100 M16/M20 A3012 RMK T11601200 MADISHF
10:20 AMWNW 810 BKN100
% 30.13
KDSM 151620Z AUTO 30007KT 10SM BKN100 M16/M21 A3012 RMK T11601210 MADISHF
10:15 AMNW 810 BKN110
% 30.12
KDSM 151615Z AUTO 31007KT 10SM BKN110 M16/M21 A3012 RMK T11601210 MADISHF
10:10 AMNW 710 BKN110
% 30.12
KDSM 151610Z AUTO 31006KT 10SM BKN110 M16/M21 A3012 RMK T11601210 MADISHF
10:05 AMNNW 910 BKN110
% 30.12
KDSM 151605Z AUTO 34008KT 10SM BKN110 M16/M20 A3012 RMK T11601200 MADISHF
10:00 AMNNW 910 BKN110
% 30.12
KDSM 151600Z AUTO 33008KT 10SM BKN110 M16/M21 A3012 RMK T11601210 MADISHF
9:55 AMNW 910 BKN110
% 30.12
KDSM 151555Z AUTO 31008KT 10SM BKN110 M16/M21 A3012 RMK T11601210 MADISHF
9:54 AMNW 910 BKN100
OVC250
3-5-12 68% 30.120
KDSM 151554Z 32008KT 10SM BKN100 OVC250 M16/M21 A3012 RMK AO2 SLP220 T11611206
9:50 AMNNW 1010 BKN110
% 30.11
KDSM 151550Z AUTO 33009KT 10SM BKN110 M16/M21 A3011 RMK T11601210 MADISHF
9:45 AMNNW 1010 BKN110
% 30.12
KDSM 151545Z AUTO 33009KT 10SM BKN110 M16/M21 A3012 RMK T11601210 MADISHF
9:40 AMNW 1310 BKN110
% 30.12
KDSM 151540Z AUTO 31011KT 10SM BKN110 M16/M21 A3012 RMK T11601210 MADISHF
9:35 AMNW 1210 SCT120
% 30.12
KDSM 151535Z AUTO 31010KT 10SM SCT120 M16/M21 A3012 RMK T11601210 MADISHF
9:30 AMNW 1310 SCT110
% 30.12
KDSM 151530Z AUTO 31011KT 10SM SCT110 M16/M20 A3012 RMK T11601200 MADISHF
9:25 AMWNW 1210 FEW110
% 30.12
KDSM 151525Z AUTO 30010KT 10SM FEW110 M16/M21 A3012 RMK T11601210 MADISHF
9:20 AMNW 1310 FEW110
% 30.12
KDSM 151520Z AUTO 31011KT 10SM FEW110 M16/M21 A3012 RMK T11601210 MADISHF
9:15 AMNW 1010 FEW110
% 30.11
KDSM 151515Z AUTO 31009KT 10SM FEW110 M16/M21 A3011 RMK T11601210 MADISHF
9:10 AMWNW 1310 CLR
% 30.12
KDSM 151510Z AUTO 30011KT 10SM CLR M16/M21 A3012 RMK T11601210 MADISHF
9:05 AMWNW 1410 CLR
% 30.12
KDSM 151505Z AUTO 30012KT 10SM CLR M16/M21 A3012 RMK T11601210 MADISHF
9:00 AMNW 1210 CLR
% 30.11
KDSM 151500Z AUTO 31010KT 10SM CLR M16/M21 A3011 RMK T11601210 MADISHF
8:55 AMNW 1210 CLR
% 30.11
KDSM 151455Z AUTO 32010KT 10SM CLR M16/M21 A3011 RMK T11601210 MADISHF
8:54 AMNNW 1210 SCT100
SCT230
BKN260
3-5-13 68% 30.110
KDSM 151454Z 33010KT 10SM SCT100 SCT230 BKN260 M16/M21 A3011 RMK AO2 SLP217 T11611206 51023
8:50 AMNNW 1310 FEW100
% 30.11
KDSM 151450Z AUTO 33011KT 10SM FEW100 M16/M21 A3011 RMK T11601210 MADISHF
8:45 AMNNW 1210 SCT100
% 30.11
KDSM 151445Z AUTO 33010KT 10SM SCT100 M17/M21 A3011 RMK T11701210 MADISHF
8:40 AMNW 1310 SCT100
% 30.11
KDSM 151440Z AUTO 32011KT 10SM SCT100 M17/M21 A3011 RMK T11701210 MADISHF
8:35 AMNW 1210 BKN100
% 30.11
KDSM 151435Z AUTO 32010KT 10SM BKN100 M17/M21 A3011 RMK T11701210 MADISHF
8:30 AMNW 1310 BKN100
% 30.11
KDSM 151430Z AUTO 31011KT 10SM BKN100 M17/M21 A3011 RMK T11701210 MADISHF
8:25 AMNNW 1210 OVC100
% 30.11
KDSM 151425Z AUTO 33010KT 10SM OVC100 M17/M21 A3011 RMK T11701210 MADISHF
8:20 AMNNW 1310 OVC100
% 30.11
KDSM 151420Z AUTO 33011KT 10SM OVC100 M17/M21 A3011 RMK T11701210 MADISHF
8:15 AMNW 1410 OVC100
% 30.1
KDSM 151415Z AUTO 32012KT 10SM OVC100 M17/M21 A3010 RMK T11701210 MADISHF
8:10 AMNW 910 OVC100
% 30.11
KDSM 151410Z AUTO 31008KT 10SM OVC100 M17/M21 A3011 RMK T11701210 MADISHF
8:05 AMNNW 1210 OVC100
% 30.1
KDSM 151405Z AUTO 33010KT 10SM OVC100 M17/M21 A3010 RMK T11701210 MADISHF
8:00 AMNNW 1410 BKN100
OVC120
% 30.1
KDSM 151400Z AUTO 33012KT 10SM BKN100 OVC120 M17/M21 A3010 RMK T11701210 MADISHF
7:55 AMNNW 1010 BKN100
OVC120
% 30.09
KDSM 151355Z AUTO 33009KT 10SM BKN100 OVC120 M17/M21 A3009 RMK T11701210 MADISHF
7:54 AMNNW 1010 BKN100
BKN120
BKN250
2-5-14 72% 30.090
KDSM 151354Z 33009KT 10SM BKN100 BKN120 BKN250 M17/M21 A3009 RMK AO2 SLP210 T11671206
7:50 AMNNW 1310 BKN100
OVC120
% 30.09
KDSM 151350Z AUTO 33011KT 10SM BKN100 OVC120 M17/M21 A3009 RMK T11701210 MADISHF
7:45 AMNW 1010 BKN100
OVC120
% 30.08
KDSM 151345Z AUTO 32009KT 10SM BKN100 OVC120 M17/M21 A3007 RMK T11701210 MADISHF
7:40 AMNNW 810 BKN100
OVC120
% 30.08
KDSM 151340Z AUTO 33007KT 10SM BKN100 OVC120 M17/M21 A3007 RMK T11701210 MADISHF
7:35 AMNNW 1010 BKN100
OVC120
% 30.07
KDSM 151335Z AUTO 34009KT 10SM BKN100 OVC120 M17/M21 A3006 RMK T11701210 MADISHF
7:30 AMNNW 1310 BKN100
OVC120
% 30.07
KDSM 151330Z AUTO 34011KT 10SM BKN100 OVC120 M17/M21 A3006 RMK T11701210 MADISHF
7:25 AMNNW 910 BKN100
OVC120
% 30.07
KDSM 151325Z AUTO 33008KT 10SM BKN100 OVC120 M17/M21 A3006 RMK T11701210 MADISHF
7:20 AMNNW 1310 OVC100
% 30.06
KDSM 151320Z AUTO 34011KT 10SM OVC100 M17/M21 A3005 RMK T11701210 MADISHF
7:15 AMNW 910 OVC100
% 30.06
KDSM 151315Z AUTO 32008KT 10SM OVC100 M17/M21 A3005 RMK T11701210 MADISHF
7:10 AMNNW 910 OVC100
% 30.07
KDSM 151310Z AUTO 33008KT 10SM OVC100 M17/M21 A3006 RMK T11701210 MADISHF
7:05 AMNW 1210 OVC100
% 30.06
KDSM 151305Z AUTO 32010KT 10SM OVC100 M17/M21 A3005 RMK T11701210 MADISHF
7:00 AMNW 1010 OVC100
% 30.06
KDSM 151300Z AUTO 32009KT 10SM OVC100 M17/M21 A3005 RMK T11701210 MADISHF
6:55 AMNNW 710 OVC100
% 30.06
KDSM 151255Z AUTO 33006KT 10SM OVC100 M17/M21 A3005 RMK T11701210 MADISHF
6:54 AMNNW 810 BKN100
2-5-12 72% 30.060
KDSM 151254Z 33007KT 10SM BKN100 M17/M21 A3006 RMK AO2 SLP199 T11671206 $
6:50 AMNW 910 OVC100
% 30.05
KDSM 151250Z AUTO 32008KT 10SM OVC100 M17/M21 A3004 RMK T11701210 MADISHF
6:45 AMNNW 1210 OVC100
% 30.05
KDSM 151245Z AUTO 33010KT 10SM OVC100 M17/M21 A3004 RMK T11701210 MADISHF
6:40 AMNW 1210 OVC100
% 30.05
KDSM 151240Z AUTO 32010KT 10SM OVC100 M17/M21 A3004 RMK T11701210 MADISHF
6:35 AMNNW 1310 OVC110
% 30.05
KDSM 151235Z AUTO 33011KT 10SM OVC110 M17/M21 A3004 RMK T11701210 MADISHF
6:30 AMNNW 1010 OVC110
% 30.05
KDSM 151230Z AUTO 33009KT 10SM OVC110 M17/M21 A3004 RMK T11701210 MADISHF
6:25 AMNNW 1310 OVC110
% 30.04
KDSM 151225Z AUTO 33011KT 10SM OVC110 M17/M21 A3004 RMK T11701210 MADISHF
6:20 AMNNW 1010 OVC110
% 30.04
KDSM 151220Z AUTO 33009KT 10SM OVC110 M17/M21 A3004 RMK T11701210 MADISHF
6:15 AMNNW 1010 OVC110
% 30.04
KDSM 151215Z AUTO 33009KT 10SM OVC110 M17/M21 A3004 RMK T11701210 MADISHF
6:10 AMNNW 1510 OVC110
% 30.04
KDSM 151210Z AUTO 33013KT 10SM OVC110 M17/M21 A3004 RMK T11701210 MADISHF
6:05 AMNNW 15G 2110 OVC110
% 30.04
KDSM 151205Z AUTO 33013G18KT 10SM OVC110 M17/M21 A3004 RMK T11701210 MADISHF
6:00 AMNNW 1410 OVC100
% 30.04
KDSM 151200Z AUTO 33012KT 10SM OVC100 M17/M21 A3004 RMK T11701210 MADISHF
5:55 AMNNW 1610 OVC100
% 30.04
KDSM 151155Z AUTO 33014KT 10SM OVC100 M17/M21 A3004 RMK T11701210 MADISHF
5:54 AMNNW 15G 2410 OVC100
2-5-17 6 2 72% 30.040
KDSM 151154Z 33013G21KT 10SM OVC100 M17/M21 A3004 RMK AO2 SLP192 4/002 T11671206 11144 21167 55011 $
5:50 AMNNW 1710 OVC100
% 30.04
KDSM 151150Z AUTO 33015KT 10SM OVC100 M17/M21 A3004 RMK T11701210 4/002 MADISHF
5:45 AMNW 1510 OVC100
% 30.04
KDSM 151145Z AUTO 32013KT 10SM OVC100 M17/M21 A3004 RMK T11701210 4/002 MADISHF
5:35 AMNNW 1410 OVC110
% 30.04
KDSM 151135Z AUTO 33012KT 10SM OVC110 M17/M21 A3004 RMK T11701210 4/002 MADISHF
5:30 AMNNW 1510 OVC110
% 30.05
KDSM 151130Z AUTO 33013KT 10SM OVC110 M17/M21 A3004 RMK T11701210 4/002 MADISHF
5:25 AMNW 1710 OVC110
% 30.04
KDSM 151125Z AUTO 32015KT 10SM OVC110 M17/M21 A3004 RMK T11701210 4/002 MADISHF
5:20 AMNNW 1510 OVC110
% 30.04
KDSM 151120Z AUTO 33013KT 10SM OVC110 M17/M21 A3004 RMK T11701210 4/002 MADISHF
5:15 AMNW 13G 1810 OVC110
% 30.04
KDSM 151115Z AUTO 32011G16KT 10SM OVC110 M17/M21 A3004 RMK T11701210 4/002 MADISHF
5:10 AMNW 1510 OVC120
% 30.04
KDSM 151110Z AUTO 32013KT 10SM OVC120 M17/M21 A3004 RMK T11701210 4/002 MADISHF
5:05 AMNNW 1310 OVC120
% 30.03
KDSM 151105Z AUTO 33011KT 10SM OVC120 M17/M21 A3003 RMK T11701210 4/002 MADISHF
5:00 AMNNW 1610 OVC120
% 30.03
KDSM 151100Z AUTO 33014KT 10SM OVC120 M17/M21 A3003 RMK T11701210 4/002 MADISHF
4:55 AMNW 1510 OVC120
% 30.03
KDSM 151055Z AUTO 32013KT 10SM OVC120 M17/M21 A3003 RMK T11701210 MADISHF
4:54 AMNW 15G 2210 BKN120
2-5-17 72% 30.030
KDSM 151054Z 32013G19KT 10SM BKN120 M17/M21 A3003 RMK AO2 SLP188 T11671206 $
4:50 AMNW 1510 BKN120
% 30.03
KDSM 151050Z AUTO 32013KT 10SM BKN120 M17/M21 A3003 RMK T11701210 MADISHF
4:45 AMNW 1410 BKN120
% 30.03
KDSM 151045Z AUTO 32012KT 10SM BKN120 M17/M21 A3003 RMK T11701210 MADISHF
4:40 AMNW 1610 BKN120
% 30.03
KDSM 151040Z AUTO 32014KT 10SM BKN120 M17/M21 A3003 RMK T11701210 MADISHF
4:35 AMNW 1410 BKN120
% 30.03
KDSM 151035Z AUTO 32012KT 10SM BKN120 M17/M21 A3003 RMK T11701210 MADISHF
4:30 AMNW 1310 SCT120
% 30.03
KDSM 151030Z AUTO 32011KT 10SM SCT120 M17/M21 A3003 RMK T11701210 MADISHF
4:25 AMNW 1310 FEW120
% 30.03
KDSM 151025Z AUTO 32011KT 10SM FEW120 M17/M21 A3003 RMK T11701210 MADISHF
4:20 AMNW 1410 CLR
% 30.03
KDSM 151020Z AUTO 32012KT 10SM CLR M17/M21 A3003 RMK T11701210 MADISHF
4:15 AMNNW 1610 CLR
% 30.02
KDSM 151015Z AUTO 33014KT 10SM CLR M17/M21 A3002 RMK T11701210 MADISHF
4:10 AMNW 15G 2110 CLR
% 30.03
KDSM 151010Z AUTO 32013G18KT 10SM CLR M17/M21 A3003 RMK T11701210 MADISHF
4:05 AMNW 1410 CLR
% 30.03
KDSM 151005Z AUTO 32012KT 10SM CLR M17/M21 A3003 RMK T11701210 MADISHF
4:00 AMNNW 1410 CLR
% 30.03
KDSM 151000Z AUTO 33012KT 10SM CLR M17/M21 A3003 RMK T11701210 MADISHF
3:55 AMNNW 1410 CLR
% 30.03
KDSM 150955Z AUTO 33012KT 10SM CLR M17/M21 A3003 RMK T11701210 MADISHF
3:54 AMNNW 1510 FEW120
2-5-17 72% 30.030
KDSM 150954Z 33013KT 10SM FEW120 M17/M21 A3003 RMK AO2 SLP188 T11671206 $
3:50 AMNW 1510 CLR
% 30.04
KDSM 150950Z AUTO 32013KT 10SM CLR M17/M21 A3004 RMK T11701210 MADISHF
3:45 AMNW 1510 CLR
% 30.05
KDSM 150945Z AUTO 31013KT 10SM CLR M17/M21 A3004 RMK T11701210 MADISHF
3:40 AMNW 1510 CLR
% 30.05
KDSM 150940Z AUTO 32013KT 10SM CLR M17/M21 A3004 RMK T11701210 MADISHF
3:35 AMNW 1510 CLR
% 30.05
KDSM 150935Z AUTO 32013KT 10SM CLR M17/M20 A3004 RMK T11701200 MADISHF
3:30 AMNW 1410 CLR
% 30.05
KDSM 150930Z AUTO 32012KT 10SM CLR M17/M20 A3004 RMK T11701200 MADISHF
3:25 AMNW 1410 CLR
% 30.05
KDSM 150925Z AUTO 31012KT 10SM CLR M17/M21 A3004 RMK T11701210 MADISHF
3:20 AMWNW 1610 CLR
% 30.06
KDSM 150920Z AUTO 30014KT 10SM CLR M17/M20 A3005 RMK T11701200 MADISHF
3:15 AMWNW 15G 2110 CLR
% 30.06
KDSM 150915Z AUTO 30013G18KT 10SM CLR M17/M20 A3005 RMK T11701200 MADISHF
3:10 AMWNW 1510 CLR
% 30.06
KDSM 150910Z AUTO 30013KT 10SM CLR M17/M20 A3005 RMK T11701200 MADISHF
3:05 AMWNW 1510 CLR
% 30.07
KDSM 150905Z AUTO 30013KT 10SM CLR M16/M20 A3006 RMK T11601200 MADISHF
3:00 AMWNW 1610 CLR
% 30.07
KDSM 150900Z AUTO 30014KT 10SM CLR M16/M20 A3006 RMK T11601200 MADISHF
2:55 AMWNW 18G 2410 CLR
% 30.07
KDSM 150855Z AUTO 29016G21KT 10SM CLR M16/M20 A3006 RMK T11601200 MADISHF
2:54 AMWNW 1710 CLR
3-4-17 72% 30.070
KDSM 150854Z 29015KT 10SM CLR M16/M20 A3007 RMK AO2 SLP201 T11611200 53013 $
2:50 AMWNW 1510 CLR
% 30.07
KDSM 150850Z AUTO 29013KT 10SM CLR M16/M20 A3006 RMK T11601200 MADISHF
2:45 AMWNW 1610 CLR
% 30.06
KDSM 150845Z AUTO 29014KT 10SM CLR M16/M20 A3005 RMK T11601200 MADISHF
2:40 AMWNW 1610 CLR
% 30.06
KDSM 150840Z AUTO 29014KT 10SM CLR M16/M20 A3005 RMK T11601200 MADISHF
2:35 AMWNW 1510 CLR
% 30.06
KDSM 150835Z AUTO 30013KT 10SM CLR M16/M20 A3005 RMK T11601200 MADISHF
2:30 AMNW 1310 CLR
% 30.05
KDSM 150830Z AUTO 31011KT 10SM CLR M16/M20 A3004 RMK T11601200 MADISHF
2:25 AMNW 1610 CLR
% 30.06
KDSM 150825Z AUTO 31014KT 10SM CLR M16/M20 A3005 RMK T11601200 MADISHF
2:20 AMWNW 1410 CLR
% 30.05
KDSM 150820Z AUTO 30012KT 10SM CLR M16/M20 A3004 RMK T11601200 MADISHF
2:15 AMNW 1510 CLR
% 30.05
KDSM 150815Z AUTO 31013KT 10SM CLR M16/M20 A3004 RMK T11601200 MADISHF
2:10 AMNW 1510 CLR
% 30.05
KDSM 150810Z AUTO 31013KT 10SM CLR M16/M20 A3004 RMK T11601200 MADISHF
2:05 AMNW 1610 CLR
% 30.04
KDSM 150805Z AUTO 32014KT 10SM CLR M16/M20 A3004 RMK T11601200 MADISHF
2:00 AMNW 1510 CLR
% 30.04
KDSM 150800Z AUTO 32013KT 10SM CLR M16/M20 A3004 RMK T11601200 MADISHF
1:55 AMNW 17G 2310 CLR
% 30.04
KDSM 150755Z AUTO 32015G20KT 10SM CLR M16/M19 A3004 RMK T11601190 MADISHF
1:54 AMNW 1610 CLR
4-3-15 73% 30.050
KDSM 150754Z 32014KT 10SM CLR M16/M19 A3005 RMK AO2 SLP191 T11561194 $
1:50 AMNW 1410 CLR
% 30.05
KDSM 150750Z AUTO 32012KT 10SM CLR M16/M19 A3004 RMK T11601190 MADISHF
1:45 AMNW 1510 CLR
% 30.04
KDSM 150745Z AUTO 32013KT 10SM CLR M16/M19 A3004 RMK T11601190 MADISHF
1:40 AMNW 1610 CLR
% 30.05
KDSM 150740Z AUTO 31014KT 10SM CLR M16/M19 A3004 RMK T11601190 MADISHF
1:35 AMNW 1610 CLR
% 30.05
KDSM 150735Z AUTO 31014KT 10SM CLR M16/M19 A3004 RMK T11601190 MADISHF
1:30 AMWNW 1610 CLR
% 30.05
KDSM 150730Z AUTO 30014KT 10SM CLR M16/M19 A3004 RMK T11601190 MADISHF
1:25 AMNW 1510 CLR
% 30.04
KDSM 150725Z AUTO 31013KT 10SM CLR M16/M19 A3004 RMK T11601190 MADISHF
1:20 AMNW 1410 CLR
% 30.04
KDSM 150720Z AUTO 31012KT 10SM CLR M16/M19 A3004 RMK T11601190 MADISHF
1:15 AMNW 1510 CLR
% 30.04
KDSM 150715Z AUTO 31013KT 10SM CLR M16/M19 A3004 RMK T11601190 MADISHF
1:10 AMNW 1410 CLR
% 30.03
KDSM 150710Z AUTO 32012KT 10SM CLR M16/M19 A3003 RMK T11601190 MADISHF
1:05 AMNW 1610 CLR
% 30.03
KDSM 150705Z AUTO 32014KT 10SM CLR M16/M19 A3003 RMK T11601190 MADISHF
1:00 AMNW 1810 CLR
% 30.02
KDSM 150700Z AUTO 32016KT 10SM CLR M15/M19 A3002 RMK T11501190 MADISHF
12:55 AMNNW 1710 CLR
% 30.01
KDSM 150655Z AUTO 33015KT 10SM CLR M15/M19 A3001 RMK T11501190 MADISHF
12:54 AMNNW 18G 2510 CLR
5-2-15 72% 30.010
KDSM 150654Z 33016G22KT 10SM CLR M15/M19 A3001 RMK AO2 PK WND 31028/0615 SLP177 T11501189 $
12:50 AMNW 1610 CLR
% 30.01
KDSM 150650Z AUTO 32014KT 10SM CLR M15/M19 A3001 RMK T11501190 MADISHF
12:45 AMNW 1810 CLR
% 30.02
KDSM 150645Z AUTO 32016KT 10SM CLR M15/M19 A3002 RMK T11501190 MADISHF
12:40 AMNNW 2010 CLR
% 30.02
KDSM 150640Z AUTO 33017KT 10SM CLR M15/M19 A3002 RMK T11501190 MADISHF
12:40 AMM10 CLR
% 30.02
KDSM 150640Z AUTO ///17KT 10SM CLR M15/M19 A3002 RMK T11501190 MADISHF
12:35 AMNNW 17G 2510 CLR
% 30.02
KDSM 150635Z AUTO 33015G22KT 10SM CLR M15/M19 A3002 RMK T11501190 MADISHF
12:30 AMNW 1710 CLR
% 30.02
KDSM 150630Z AUTO 32015KT 10SM CLR M15/M19 A3002 RMK T11501190 MADISHF
12:25 AMNNW 1810 CLR
% 30.02
KDSM 150625Z AUTO 33016KT 10SM CLR M15/M19 A3002 RMK T11501190 MADISHF
12:25 AMM10 CLR
% 30.02
KDSM 150625Z AUTO ///16KT 10SM CLR M15/M19 A3002 RMK T11501190 MADISHF
12:20 AMNW 17G 2310 CLR
% 30.02
KDSM 150620Z AUTO 32015G20KT 10SM CLR M15/M19 A3002 RMK T11501190 MADISHF
12:15 AMNW 21G 3210 CLR
% 30.03
KDSM 150615Z AUTO 32018G28KT 10SM CLR M14/M19 A3003 RMK T11401190 MADISHF
12:10 AMNW 2110 CLR
% 30.03
KDSM 150610Z AUTO 32018KT 10SM CLR M14/M19 A3003 RMK T11401190 MADISHF
12:05 AMNW 1710 CLR
% 30.03
KDSM 150605Z AUTO 32015KT 10SM CLR M14/M19 A3003 RMK T11401190 MADISHF
12:00 AMNNW 1810 CLR
% 30.03
KDSM 150600Z AUTO 33016KT 10SM CLR M14/M19 A3003 RMK T11401190 MADISHF
12:00 AMM10 CLR
% 30.03
KDSM 150600Z AUTO ///16KT 10SM CLR M14/M19 A3003 RMK T11401190 MADISHF

Data Notes